sensor_id;sensor_type;location;lat;lon;timestamp;P1;durP1;ratioP1;P2;durP2;ratioP2
71916;SDS011;59793;46.506;6.674;2022-07-23T00:00:14;7.65;;;5.43;;
71916;SDS011;59793;46.506;6.674;2022-07-23T00:02:40;9.05;;;5.80;;
71916;SDS011;59793;46.506;6.674;2022-07-23T00:05:06;8.20;;;5.65;;
71916;SDS011;59793;46.506;6.674;2022-07-23T00:07:32;7.60;;;5.35;;
71916;SDS011;59793;46.506;6.674;2022-07-23T00:09:57;8.37;;;5.27;;
71916;SDS011;59793;46.506;6.674;2022-07-23T00:12:22;6.17;;;5.00;;
71916;SDS011;59793;46.506;6.674;2022-07-23T00:14:48;8.33;;;5.40;;
71916;SDS011;59793;46.506;6.674;2022-07-23T00:17:13;10.20;;;5.87;;
71916;SDS011;59793;46.506;6.674;2022-07-23T00:19:38;9.00;;;5.03;;
71916;SDS011;59793;46.506;6.674;2022-07-23T00:22:04;7.83;;;4.97;;
71916;SDS011;59793;46.506;6.674;2022-07-23T00:24:29;9.47;;;5.30;;
71916;SDS011;59793;46.506;6.674;2022-07-23T00:26:55;9.50;;;5.17;;
71916;SDS011;59793;46.506;6.674;2022-07-23T00:29:20;9.40;;;4.93;;
71916;SDS011;59793;46.506;6.674;2022-07-23T00:31:45;10.23;;;4.80;;
71916;SDS011;59793;46.506;6.674;2022-07-23T00:34:11;6.87;;;5.30;;
71916;SDS011;59793;46.506;6.674;2022-07-23T00:36:36;8.10;;;5.27;;
71916;SDS011;59793;46.506;6.674;2022-07-23T00:39:02;7.00;;;4.83;;
71916;SDS011;59793;46.506;6.674;2022-07-23T00:41:27;10.60;;;5.25;;
71916;SDS011;59793;46.506;6.674;2022-07-23T00:43:52;6.67;;;5.07;;
71916;SDS011;59793;46.506;6.674;2022-07-23T00:46:19;8.20;;;5.07;;
71916;SDS011;59793;46.506;6.674;2022-07-23T00:48:45;7.82;;;5.30;;
71916;SDS011;59793;46.506;6.674;2022-07-23T00:51:10;10.80;;;5.37;;
71916;SDS011;59793;46.506;6.674;2022-07-23T00:53:35;13.37;;;4.97;;
71916;SDS011;59793;46.506;6.674;2022-07-23T00:56:01;7.10;;;5.43;;
71916;SDS011;59793;46.506;6.674;2022-07-23T00:58:27;7.85;;;5.22;;
71916;SDS011;59793;46.506;6.674;2022-07-23T01:00:52;10.70;;;5.10;;
71916;SDS011;59793;46.506;6.674;2022-07-23T01:03:18;10.97;;;5.80;;
71916;SDS011;59793;46.506;6.674;2022-07-23T01:05:43;13.63;;;6.00;;
71916;SDS011;59793;46.506;6.674;2022-07-23T01:08:09;9.20;;;5.78;;
71916;SDS011;59793;46.506;6.674;2022-07-23T01:10:35;8.60;;;5.32;;
71916;SDS011;59793;46.506;6.674;2022-07-23T01:13:02;8.95;;;6.47;;
71916;SDS011;59793;46.506;6.674;2022-07-23T01:15:29;8.77;;;5.47;;
71916;SDS011;59793;46.506;6.674;2022-07-23T01:17:56;8.93;;;5.97;;
71916;SDS011;59793;46.506;6.674;2022-07-23T01:20:22;7.77;;;5.43;;
71916;SDS011;59793;46.506;6.674;2022-07-23T01:22:48;10.13;;;5.63;;
71916;SDS011;59793;46.506;6.674;2022-07-23T01:25:13;7.07;;;5.37;;
71916;SDS011;59793;46.506;6.674;2022-07-23T01:27:39;7.75;;;5.43;;
71916;SDS011;59793;46.506;6.674;2022-07-23T01:30:04;7.30;;;5.63;;
71916;SDS011;59793;46.506;6.674;2022-07-23T01:32:30;9.38;;;5.78;;
71916;SDS011;59793;46.506;6.674;2022-07-23T01:34:56;6.83;;;5.87;;
71916;SDS011;59793;46.506;6.674;2022-07-23T01:37:22;9.30;;;6.25;;
71916;SDS011;59793;46.506;6.674;2022-07-23T01:39:47;7.50;;;6.20;;
71916;SDS011;59793;46.506;6.674;2022-07-23T01:42:13;9.30;;;6.43;;
71916;SDS011;59793;46.506;6.674;2022-07-23T01:44:38;12.17;;;6.00;;
71916;SDS011;59793;46.506;6.674;2022-07-23T01:47:03;9.40;;;6.47;;
71916;SDS011;59793;46.506;6.674;2022-07-23T01:49:29;10.13;;;6.00;;
71916;SDS011;59793;46.506;6.674;2022-07-23T01:51:54;6.73;;;5.87;;
71916;SDS011;59793;46.506;6.674;2022-07-23T01:54:26;6.93;;;5.85;;
71916;SDS011;59793;46.506;6.674;2022-07-23T01:56:52;7.05;;;6.10;;
71916;SDS011;59793;46.506;6.674;2022-07-23T01:59:18;8.40;;;5.80;;
71916;SDS011;59793;46.506;6.674;2022-07-23T02:01:43;8.37;;;6.00;;
71916;SDS011;59793;46.506;6.674;2022-07-23T02:04:09;8.20;;;6.50;;
71916;SDS011;59793;46.506;6.674;2022-07-23T02:06:34;14.67;;;6.57;;
71916;SDS011;59793;46.506;6.674;2022-07-23T02:08:59;10.17;;;6.00;;
71916;SDS011;59793;46.506;6.674;2022-07-23T02:11:24;10.53;;;5.73;;
71916;SDS011;59793;46.506;6.674;2022-07-23T02:13:50;9.53;;;5.90;;
71916;SDS011;59793;46.506;6.674;2022-07-23T02:16:15;10.80;;;6.30;;
71916;SDS011;59793;46.506;6.674;2022-07-23T02:18:40;8.37;;;6.07;;
71916;SDS011;59793;46.506;6.674;2022-07-23T02:21:06;7.60;;;6.13;;
71916;SDS011;59793;46.506;6.674;2022-07-23T02:23:31;9.10;;;6.27;;
71916;SDS011;59793;46.506;6.674;2022-07-23T02:25:56;6.90;;;5.67;;
71916;SDS011;59793;46.506;6.674;2022-07-23T02:28:22;9.70;;;5.87;;
71916;SDS011;59793;46.506;6.674;2022-07-23T02:30:47;11.90;;;6.30;;
71916;SDS011;59793;46.506;6.674;2022-07-23T02:33:13;10.23;;;5.90;;
71916;SDS011;59793;46.506;6.674;2022-07-23T02:35:38;8.60;;;6.33;;
71916;SDS011;59793;46.506;6.674;2022-07-23T02:38:03;7.53;;;6.00;;
71916;SDS011;59793;46.506;6.674;2022-07-23T02:40:29;9.50;;;5.77;;
71916;SDS011;59793;46.506;6.674;2022-07-23T02:42:54;7.53;;;6.20;;
71916;SDS011;59793;46.506;6.674;2022-07-23T02:45:19;8.37;;;6.10;;
71916;SDS011;59793;46.506;6.674;2022-07-23T02:47:45;11.13;;;6.13;;
71916;SDS011;59793;46.506;6.674;2022-07-23T02:50:10;9.27;;;5.50;;
71916;SDS011;59793;46.506;6.674;2022-07-23T02:52:37;8.52;;;5.32;;
71916;SDS011;59793;46.506;6.674;2022-07-23T02:55:03;12.43;;;6.22;;
71916;SDS011;59793;46.506;6.674;2022-07-23T02:57:29;16.45;;;6.72;;
71916;SDS011;59793;46.506;6.674;2022-07-23T03:02:20;9.23;;;5.23;;
71916;SDS011;59793;46.506;6.674;2022-07-23T03:04:45;11.70;;;6.03;;
71916;SDS011;59793;46.506;6.674;2022-07-23T03:07:11;11.57;;;6.07;;
71916;SDS011;59793;46.506;6.674;2022-07-23T03:09:37;7.03;;;5.77;;
71916;SDS011;59793;46.506;6.674;2022-07-23T03:12:03;11.18;;;6.38;;
71916;SDS011;59793;46.506;6.674;2022-07-23T03:14:28;11.97;;;5.87;;
71916;SDS011;59793;46.506;6.674;2022-07-23T03:16:53;9.07;;;6.10;;
71916;SDS011;59793;46.506;6.674;2022-07-23T03:19:19;8.07;;;6.27;;
71916;SDS011;59793;46.506;6.674;2022-07-23T03:21:45;8.18;;;6.03;;
71916;SDS011;59793;46.506;6.674;2022-07-23T03:24:10;9.20;;;6.30;;
71916;SDS011;59793;46.506;6.674;2022-07-23T03:26:36;8.97;;;5.37;;
71916;SDS011;59793;46.506;6.674;2022-07-23T03:29:01;8.30;;;6.50;;
71916;SDS011;59793;46.506;6.674;2022-07-23T03:31:28;7.88;;;6.15;;
71916;SDS011;59793;46.506;6.674;2022-07-23T03:33:55;9.90;;;6.13;;
71916;SDS011;59793;46.506;6.674;2022-07-23T03:36:20;12.70;;;6.17;;
71916;SDS011;59793;46.506;6.674;2022-07-23T03:38:46;9.30;;;6.47;;
71916;SDS011;59793;46.506;6.674;2022-07-23T03:41:11;9.83;;;6.13;;
71916;SDS011;59793;46.506;6.674;2022-07-23T03:43:36;11.43;;;5.60;;
71916;SDS011;59793;46.506;6.674;2022-07-23T03:46:02;8.97;;;5.90;;
71916;SDS011;59793;46.506;6.674;2022-07-23T03:48:27;12.73;;;6.33;;
71916;SDS011;59793;46.506;6.674;2022-07-23T03:50:52;6.97;;;5.97;;
71916;SDS011;59793;46.506;6.674;2022-07-23T03:53:18;9.35;;;5.65;;
71916;SDS011;59793;46.506;6.674;2022-07-23T03:55:43;10.03;;;6.50;;
71916;SDS011;59793;46.506;6.674;2022-07-23T03:58:09;6.43;;;5.67;;
71916;SDS011;59793;46.506;6.674;2022-07-23T04:00:34;13.73;;;6.20;;
71916;SDS011;59793;46.506;6.674;2022-07-23T04:02:59;9.03;;;6.77;;
71916;SDS011;59793;46.506;6.674;2022-07-23T04:05:25;12.23;;;6.10;;
71916;SDS011;59793;46.506;6.674;2022-07-23T04:07:50;8.47;;;6.03;;
71916;SDS011;59793;46.506;6.674;2022-07-23T04:10:15;7.37;;;6.10;;
71916;SDS011;59793;46.506;6.674;2022-07-23T04:12:41;8.40;;;5.73;;
71916;SDS011;59793;46.506;6.674;2022-07-23T04:15:06;10.47;;;7.33;;
71916;SDS011;59793;46.506;6.674;2022-07-23T04:17:33;10.20;;;6.00;;
71916;SDS011;59793;46.506;6.674;2022-07-23T04:19:58;8.70;;;6.30;;
71916;SDS011;59793;46.506;6.674;2022-07-23T04:22:23;8.93;;;6.20;;
71916;SDS011;59793;46.506;6.674;2022-07-23T04:24:49;13.63;;;7.07;;
71916;SDS011;59793;46.506;6.674;2022-07-23T04:27:15;9.43;;;5.97;;
71916;SDS011;59793;46.506;6.674;2022-07-23T04:29:41;8.05;;;6.03;;
71916;SDS011;59793;46.506;6.674;2022-07-23T04:32:06;9.87;;;6.53;;
71916;SDS011;59793;46.506;6.674;2022-07-23T04:34:32;10.55;;;6.45;;
71916;SDS011;59793;46.506;6.674;2022-07-23T04:36:57;8.20;;;5.40;;
71916;SDS011;59793;46.506;6.674;2022-07-23T04:39:22;8.80;;;5.53;;
71916;SDS011;59793;46.506;6.674;2022-07-23T04:41:48;7.17;;;6.00;;
71916;SDS011;59793;46.506;6.674;2022-07-23T04:44:13;9.73;;;6.60;;
71916;SDS011;59793;46.506;6.674;2022-07-23T04:46:39;8.57;;;5.77;;
71916;SDS011;59793;46.506;6.674;2022-07-23T04:49:04;7.90;;;5.80;;
71916;SDS011;59793;46.506;6.674;2022-07-23T04:51:29;9.43;;;4.97;;
71916;SDS011;59793;46.506;6.674;2022-07-23T04:53:55;11.37;;;6.20;;
71916;SDS011;59793;46.506;6.674;2022-07-23T04:56:20;7.43;;;5.55;;
71916;SDS011;59793;46.506;6.674;2022-07-23T04:58:46;12.17;;;5.90;;
71916;SDS011;59793;46.506;6.674;2022-07-23T05:01:11;8.80;;;6.40;;
71916;SDS011;59793;46.506;6.674;2022-07-23T05:03:37;7.77;;;5.70;;
71916;SDS011;59793;46.506;6.674;2022-07-23T05:06:02;11.93;;;6.53;;
71916;SDS011;59793;46.506;6.674;2022-07-23T05:08:28;8.55;;;5.93;;
71916;SDS011;59793;46.506;6.674;2022-07-23T05:10:53;7.47;;;6.10;;
71916;SDS011;59793;46.506;6.674;2022-07-23T05:13:18;9.60;;;5.77;;
71916;SDS011;59793;46.506;6.674;2022-07-23T05:15:44;8.00;;;5.00;;
71916;SDS011;59793;46.506;6.674;2022-07-23T05:18:09;8.83;;;5.63;;
71916;SDS011;59793;46.506;6.674;2022-07-23T05:20:35;6.40;;;4.90;;
71916;SDS011;59793;46.506;6.674;2022-07-23T05:23:00;9.97;;;5.70;;
71916;SDS011;59793;46.506;6.674;2022-07-23T05:25:26;9.47;;;5.77;;
71916;SDS011;59793;46.506;6.674;2022-07-23T05:27:51;8.30;;;5.50;;
71916;SDS011;59793;46.506;6.674;2022-07-23T05:30:16;10.10;;;5.73;;
71916;SDS011;59793;46.506;6.674;2022-07-23T05:32:42;7.97;;;5.57;;
71916;SDS011;59793;46.506;6.674;2022-07-23T05:35:07;7.40;;;5.90;;
71916;SDS011;59793;46.506;6.674;2022-07-23T05:37:33;7.63;;;6.20;;
71916;SDS011;59793;46.506;6.674;2022-07-23T05:40:02;8.30;;;6.10;;
71916;SDS011;59793;46.506;6.674;2022-07-23T05:42:28;7.65;;;5.80;;
71916;SDS011;59793;46.506;6.674;2022-07-23T05:44:54;6.87;;;5.43;;
71916;SDS011;59793;46.506;6.674;2022-07-23T05:47:19;13.13;;;5.67;;
71916;SDS011;59793;46.506;6.674;2022-07-23T05:49:44;5.97;;;5.30;;
71916;SDS011;59793;46.506;6.674;2022-07-23T05:52:10;7.43;;;5.43;;
71916;SDS011;59793;46.506;6.674;2022-07-23T05:54:35;9.57;;;5.70;;
71916;SDS011;59793;46.506;6.674;2022-07-23T05:57:01;9.63;;;6.60;;
71916;SDS011;59793;46.506;6.674;2022-07-23T05:59:27;11.70;;;6.03;;
71916;SDS011;59793;46.506;6.674;2022-07-23T06:01:52;10.87;;;7.10;;
71916;SDS011;59793;46.506;6.674;2022-07-23T06:04:17;7.03;;;6.10;;
71916;SDS011;59793;46.506;6.674;2022-07-23T06:06:43;9.37;;;6.13;;
71916;SDS011;59793;46.506;6.674;2022-07-23T06:09:08;8.97;;;6.00;;
71916;SDS011;59793;46.506;6.674;2022-07-23T06:11:35;7.00;;;6.15;;
71916;SDS011;59793;46.506;6.674;2022-07-23T06:14:01;15.80;;;6.27;;
71916;SDS011;59793;46.506;6.674;2022-07-23T06:16:26;9.93;;;6.47;;
71916;SDS011;59793;46.506;6.674;2022-07-23T06:18:52;9.70;;;6.27;;
71916;SDS011;59793;46.506;6.674;2022-07-23T06:21:17;9.93;;;5.93;;
71916;SDS011;59793;46.506;6.674;2022-07-23T06:23:42;9.00;;;5.87;;
71916;SDS011;59793;46.506;6.674;2022-07-23T06:26:08;8.13;;;5.53;;
71916;SDS011;59793;46.506;6.674;2022-07-23T06:28:33;9.07;;;5.77;;
71916;SDS011;59793;46.506;6.674;2022-07-23T06:30:58;9.93;;;6.17;;
71916;SDS011;59793;46.506;6.674;2022-07-23T06:33:23;6.70;;;5.77;;
71916;SDS011;59793;46.506;6.674;2022-07-23T06:35:49;9.53;;;5.67;;
71916;SDS011;59793;46.506;6.674;2022-07-23T06:38:14;10.27;;;6.27;;
71916;SDS011;59793;46.506;6.674;2022-07-23T06:40:39;8.07;;;5.60;;
71916;SDS011;59793;46.506;6.674;2022-07-23T06:43:05;9.67;;;6.10;;
71916;SDS011;59793;46.506;6.674;2022-07-23T06:45:30;10.87;;;6.57;;
71916;SDS011;59793;46.506;6.674;2022-07-23T06:47:56;12.10;;;6.82;;
71916;SDS011;59793;46.506;6.674;2022-07-23T06:50:21;10.27;;;6.53;;
71916;SDS011;59793;46.506;6.674;2022-07-23T06:52:47;10.80;;;7.17;;
71916;SDS011;59793;46.506;6.674;2022-07-23T06:55:12;11.63;;;6.77;;
71916;SDS011;59793;46.506;6.674;2022-07-23T06:57:37;9.17;;;6.43;;
71916;SDS011;59793;46.506;6.674;2022-07-23T07:00:03;8.83;;;6.27;;
71916;SDS011;59793;46.506;6.674;2022-07-23T07:02:29;8.43;;;6.00;;
71916;SDS011;59793;46.506;6.674;2022-07-23T07:04:54;9.40;;;6.77;;
71916;SDS011;59793;46.506;6.674;2022-07-23T07:07:21;15.18;;;6.60;;
71916;SDS011;59793;46.506;6.674;2022-07-23T07:09:46;10.67;;;6.37;;
71916;SDS011;59793;46.506;6.674;2022-07-23T07:12:11;9.53;;;6.90;;
71916;SDS011;59793;46.506;6.674;2022-07-23T07:14:37;9.77;;;6.20;;
71916;SDS011;59793;46.506;6.674;2022-07-23T07:17:02;11.57;;;6.45;;
71916;SDS011;59793;46.506;6.674;2022-07-23T07:19:28;13.53;;;7.50;;
71916;SDS011;59793;46.506;6.674;2022-07-23T07:21:53;10.20;;;7.10;;
71916;SDS011;59793;46.506;6.674;2022-07-23T07:24:18;9.53;;;6.90;;
71916;SDS011;59793;46.506;6.674;2022-07-23T07:26:44;13.13;;;7.77;;
71916;SDS011;59793;46.506;6.674;2022-07-23T07:29:09;7.30;;;6.60;;
71916;SDS011;59793;46.506;6.674;2022-07-23T07:31:34;9.33;;;7.17;;
71916;SDS011;59793;46.506;6.674;2022-07-23T07:34:00;13.57;;;7.40;;
71916;SDS011;59793;46.506;6.674;2022-07-23T07:36:25;12.87;;;6.47;;
71916;SDS011;59793;46.506;6.674;2022-07-23T07:38:51;10.05;;;7.60;;
71916;SDS011;59793;46.506;6.674;2022-07-23T07:41:16;8.60;;;7.07;;
71916;SDS011;59793;46.506;6.674;2022-07-23T07:43:41;11.30;;;6.73;;
71916;SDS011;59793;46.506;6.674;2022-07-23T07:46:07;10.00;;;7.00;;
71916;SDS011;59793;46.506;6.674;2022-07-23T07:48:36;8.63;;;7.32;;
71916;SDS011;59793;46.506;6.674;2022-07-23T07:53:28;10.07;;;6.95;;
71916;SDS011;59793;46.506;6.674;2022-07-23T07:55:53;7.87;;;6.97;;
71916;SDS011;59793;46.506;6.674;2022-07-23T07:58:19;10.00;;;6.87;;
71916;SDS011;59793;46.506;6.674;2022-07-23T08:00:44;9.10;;;6.80;;
71916;SDS011;59793;46.506;6.674;2022-07-23T08:03:09;7.40;;;6.70;;
71916;SDS011;59793;46.506;6.674;2022-07-23T08:05:35;12.23;;;7.60;;
71916;SDS011;59793;46.506;6.674;2022-07-23T08:08:00;7.97;;;6.93;;
71916;SDS011;59793;46.506;6.674;2022-07-23T08:10:26;10.73;;;7.83;;
71916;SDS011;59793;46.506;6.674;2022-07-23T08:12:53;12.68;;;8.75;;
71916;SDS011;59793;46.506;6.674;2022-07-23T08:15:22;11.15;;;7.65;;
71916;SDS011;59793;46.506;6.674;2022-07-23T08:20:14;11.73;;;7.60;;
71916;SDS011;59793;46.506;6.674;2022-07-23T08:22:41;9.45;;;6.63;;
71916;SDS011;59793;46.506;6.674;2022-07-23T08:25:10;11.73;;;7.60;;
71916;SDS011;59793;46.506;6.674;2022-07-23T08:27:36;10.50;;;7.82;;
71916;SDS011;59793;46.506;6.674;2022-07-23T08:30:01;12.17;;;9.03;;
71916;SDS011;59793;46.506;6.674;2022-07-23T08:32:27;11.82;;;7.80;;
71916;SDS011;59793;46.506;6.674;2022-07-23T08:34:52;13.70;;;7.17;;
71916;SDS011;59793;46.506;6.674;2022-07-23T08:37:18;11.47;;;8.27;;
71916;SDS011;59793;46.506;6.674;2022-07-23T08:39:43;8.40;;;7.17;;
71916;SDS011;59793;46.506;6.674;2022-07-23T08:42:08;15.47;;;7.50;;
71916;SDS011;59793;46.506;6.674;2022-07-23T08:44:34;11.70;;;8.13;;
71916;SDS011;59793;46.506;6.674;2022-07-23T08:47:00;12.93;;;7.10;;
71916;SDS011;59793;46.506;6.674;2022-07-23T08:49:26;8.77;;;7.40;;
71916;SDS011;59793;46.506;6.674;2022-07-23T08:54:18;10.85;;;8.27;;
71916;SDS011;59793;46.506;6.674;2022-07-23T08:56:43;10.30;;;7.75;;
71916;SDS011;59793;46.506;6.674;2022-07-23T08:59:09;7.90;;;7.07;;
71916;SDS011;59793;46.506;6.674;2022-07-23T09:01:38;8.48;;;7.03;;
71916;SDS011;59793;46.506;6.674;2022-07-23T09:04:04;12.02;;;7.47;;
71916;SDS011;59793;46.506;6.674;2022-07-23T09:06:29;10.70;;;7.03;;
71916;SDS011;59793;46.506;6.674;2022-07-23T09:08:54;12.27;;;7.23;;
71916;SDS011;59793;46.506;6.674;2022-07-23T09:11:20;11.30;;;6.90;;
71916;SDS011;59793;46.506;6.674;2022-07-23T09:13:46;9.80;;;7.47;;
71916;SDS011;59793;46.506;6.674;2022-07-23T09:16:14;9.70;;;7.50;;
71916;SDS011;59793;46.506;6.674;2022-07-23T09:18:57;9.65;;;7.15;;
71916;SDS011;59793;46.506;6.674;2022-07-23T09:21:23;9.18;;;6.95;;
71916;SDS011;59793;46.506;6.674;2022-07-23T09:26:25;8.50;;;7.07;;
71916;SDS011;59793;46.506;6.674;2022-07-23T09:31:54;12.02;;;7.50;;
71916;SDS011;59793;46.506;6.674;2022-07-23T09:34:25;9.07;;;6.78;;
71916;SDS011;59793;46.506;6.674;2022-07-23T09:36:56;11.18;;;6.95;;
71916;SDS011;59793;46.506;6.674;2022-07-23T09:39:28;10.35;;;7.55;;
71916;SDS011;59793;46.506;6.674;2022-07-23T09:41:56;11.13;;;6.95;;
71916;SDS011;59793;46.506;6.674;2022-07-23T09:46:48;8.15;;;6.03;;
71916;SDS011;59793;46.506;6.674;2022-07-23T09:59:31;10.60;;;6.68;;
71916;SDS011;59793;46.506;6.674;2022-07-23T10:01:59;12.15;;;7.47;;
71916;SDS011;59793;46.506;6.674;2022-07-23T10:04:25;12.40;;;7.82;;
71916;SDS011;59793;46.506;6.674;2022-07-23T10:06:55;10.50;;;6.72;;
71916;SDS011;59793;46.506;6.674;2022-07-23T10:09:24;9.98;;;5.93;;
71916;SDS011;59793;46.506;6.674;2022-07-23T10:11:58;9.85;;;6.85;;
71916;SDS011;59793;46.506;6.674;2022-07-23T10:14:34;10.85;;;6.88;;
71916;SDS011;59793;46.506;6.674;2022-07-23T10:17:01;9.02;;;7.57;;
71916;SDS011;59793;46.506;6.674;2022-07-23T10:19:30;10.38;;;6.93;;
71916;SDS011;59793;46.506;6.674;2022-07-23T10:21:58;9.43;;;6.32;;
71916;SDS011;59793;46.506;6.674;2022-07-23T10:31:00;9.85;;;7.05;;
71916;SDS011;59793;46.506;6.674;2022-07-23T10:33:50;11.13;;;7.25;;
71916;SDS011;59793;46.506;6.674;2022-07-23T10:36:31;9.10;;;6.82;;
71916;SDS011;59793;46.506;6.674;2022-07-23T10:39:06;10.55;;;7.13;;
71916;SDS011;59793;46.506;6.674;2022-07-23T10:41:40;7.70;;;6.78;;
71916;SDS011;59793;46.506;6.674;2022-07-23T10:44:07;15.88;;;7.55;;
71916;SDS011;59793;46.506;6.674;2022-07-23T10:46:33;11.15;;;6.95;;
71916;SDS011;59793;46.506;6.674;2022-07-23T10:49:23;16.58;;;7.32;;
71916;SDS011;59793;46.506;6.674;2022-07-23T10:54:56;7.82;;;6.75;;
71916;SDS011;59793;46.506;6.674;2022-07-23T10:57:50;9.80;;;6.80;;
71916;SDS011;59793;46.506;6.674;2022-07-23T11:00:19;12.68;;;7.90;;
71916;SDS011;59793;46.506;6.674;2022-07-23T11:02:47;9.93;;;6.95;;
71916;SDS011;59793;46.506;6.674;2022-07-23T11:05:15;11.38;;;8.45;;
71916;SDS011;59793;46.506;6.674;2022-07-23T11:10:36;7.55;;;6.53;;
71916;SDS011;59793;46.506;6.674;2022-07-23T11:34:35;13.35;;;8.48;;
71916;SDS011;59793;46.506;6.674;2022-07-23T11:37:05;11.18;;;6.88;;
71916;SDS011;59793;46.506;6.674;2022-07-23T11:39:34;10.85;;;7.60;;
71916;SDS011;59793;46.506;6.674;2022-07-23T11:42:00;8.68;;;7.15;;
71916;SDS011;59793;46.506;6.674;2022-07-23T11:44:37;12.43;;;6.80;;
71916;SDS011;59793;46.506;6.674;2022-07-23T11:47:04;11.60;;;6.95;;
71916;SDS011;59793;46.506;6.674;2022-07-23T11:49:31;12.45;;;7.13;;
71916;SDS011;59793;46.506;6.674;2022-07-23T11:52:07;11.05;;;6.80;;
71916;SDS011;59793;46.506;6.674;2022-07-23T11:54:40;9.02;;;7.05;;
71916;SDS011;59793;46.506;6.674;2022-07-23T11:57:16;9.07;;;6.53;;
71916;SDS011;59793;46.506;6.674;2022-07-23T12:02:07;11.90;;;6.47;;
71916;SDS011;59793;46.506;6.674;2022-07-23T12:07:22;7.93;;;6.60;;
71916;SDS011;59793;46.506;6.674;2022-07-23T12:09:47;10.48;;;6.00;;
71916;SDS011;59793;46.506;6.674;2022-07-23T12:12:13;10.13;;;6.88;;
71916;SDS011;59793;46.506;6.674;2022-07-23T12:14:46;10.87;;;7.60;;
71916;SDS011;59793;46.506;6.674;2022-07-23T12:17:13;10.25;;;6.82;;
71916;SDS011;59793;46.506;6.674;2022-07-23T12:22:04;8.82;;;6.90;;
71916;SDS011;59793;46.506;6.674;2022-07-23T12:24:29;11.80;;;6.65;;
71916;SDS011;59793;46.506;6.674;2022-07-23T12:29:36;11.10;;;7.30;;
71916;SDS011;59793;46.506;6.674;2022-07-23T12:34:39;10.15;;;6.63;;
71916;SDS011;59793;46.506;6.674;2022-07-23T12:39:30;8.73;;;6.80;;
71916;SDS011;59793;46.506;6.674;2022-07-23T12:41:56;12.57;;;7.13;;
71916;SDS011;59793;46.506;6.674;2022-07-23T12:46:51;13.82;;;7.47;;
71916;SDS011;59793;46.506;6.674;2022-07-23T12:49:26;9.95;;;6.60;;
71916;SDS011;59793;46.506;6.674;2022-07-23T12:51:53;8.02;;;6.60;;
71916;SDS011;59793;46.506;6.674;2022-07-23T12:56:51;8.82;;;7.07;;
71916;SDS011;59793;46.506;6.674;2022-07-23T13:01:42;7.55;;;6.47;;
71916;SDS011;59793;46.506;6.674;2022-07-23T13:04:22;10.15;;;6.45;;
71916;SDS011;59793;46.506;6.674;2022-07-23T13:06:51;11.05;;;6.53;;
71916;SDS011;59793;46.506;6.674;2022-07-23T13:09:19;9.80;;;6.25;;
71916;SDS011;59793;46.506;6.674;2022-07-23T13:11:46;9.60;;;7.38;;
71916;SDS011;59793;46.506;6.674;2022-07-23T13:14:12;11.93;;;5.78;;
71916;SDS011;59793;46.506;6.674;2022-07-23T13:19:04;9.80;;;7.20;;
71916;SDS011;59793;46.506;6.674;2022-07-23T13:23:55;10.07;;;6.97;;
71916;SDS011;59793;46.506;6.674;2022-07-23T13:26:21;9.40;;;7.32;;
71916;SDS011;59793;46.506;6.674;2022-07-23T13:31:12;10.93;;;6.97;;
71916;SDS011;59793;46.506;6.674;2022-07-23T13:36:03;11.83;;;6.63;;
71916;SDS011;59793;46.506;6.674;2022-07-23T13:38:29;13.60;;;7.45;;
71916;SDS011;59793;46.506;6.674;2022-07-23T13:40:55;13.77;;;7.68;;
71916;SDS011;59793;46.506;6.674;2022-07-23T13:43:21;9.90;;;6.97;;
71916;SDS011;59793;46.506;6.674;2022-07-23T13:45:48;13.30;;;7.30;;
71916;SDS011;59793;46.506;6.674;2022-07-23T13:48:14;14.98;;;7.32;;
71916;SDS011;59793;46.506;6.674;2022-07-23T13:50:41;7.63;;;6.40;;
71916;SDS011;59793;46.506;6.674;2022-07-23T13:53:08;8.10;;;6.55;;
71916;SDS011;59793;46.506;6.674;2022-07-23T13:55:35;9.48;;;6.55;;
71916;SDS011;59793;46.506;6.674;2022-07-23T13:58:02;9.05;;;6.70;;
71916;SDS011;59793;46.506;6.674;2022-07-23T14:00:29;10.00;;;7.32;;
71916;SDS011;59793;46.506;6.674;2022-07-23T14:02:58;13.50;;;7.13;;
71916;SDS011;59793;46.506;6.674;2022-07-23T14:05:24;9.55;;;7.32;;
71916;SDS011;59793;46.506;6.674;2022-07-23T14:07:49;7.20;;;6.40;;
71916;SDS011;59793;46.506;6.674;2022-07-23T14:10:16;8.02;;;5.35;;
71916;SDS011;59793;46.506;6.674;2022-07-23T14:12:44;10.02;;;6.47;;
71916;SDS011;59793;46.506;6.674;2022-07-23T14:15:10;9.25;;;6.05;;
71916;SDS011;59793;46.506;6.674;2022-07-23T14:17:36;6.80;;;5.93;;
71916;SDS011;59793;46.506;6.674;2022-07-23T14:20:03;11.48;;;7.07;;
71916;SDS011;59793;46.506;6.674;2022-07-23T14:22:30;8.07;;;6.85;;
71916;SDS011;59793;46.506;6.674;2022-07-23T14:27:22;14.05;;;6.47;;
71916;SDS011;59793;46.506;6.674;2022-07-23T14:32:13;12.43;;;7.03;;
71916;SDS011;59793;46.506;6.674;2022-07-23T14:37:04;8.83;;;6.33;;
71916;SDS011;59793;46.506;6.674;2022-07-23T14:39:29;9.40;;;6.88;;
71916;SDS011;59793;46.506;6.674;2022-07-23T14:41:55;9.43;;;6.75;;
71916;SDS011;59793;46.506;6.674;2022-07-23T14:46:46;8.65;;;6.65;;
71916;SDS011;59793;46.506;6.674;2022-07-23T14:51:36;8.27;;;6.33;;
71916;SDS011;59793;46.506;6.674;2022-07-23T14:56:27;8.77;;;6.10;;
71916;SDS011;59793;46.506;6.674;2022-07-23T15:01:20;7.93;;;6.25;;
71916;SDS011;59793;46.506;6.674;2022-07-23T15:06:11;9.90;;;5.77;;
71916;SDS011;59793;46.506;6.674;2022-07-23T15:11:02;9.87;;;5.90;;
71916;SDS011;59793;46.506;6.674;2022-07-23T15:15:53;10.88;;;6.13;;
71916;SDS011;59793;46.506;6.674;2022-07-23T15:20:43;8.50;;;6.22;;
71916;SDS011;59793;46.506;6.674;2022-07-23T15:25:34;7.05;;;6.03;;
71916;SDS011;59793;46.506;6.674;2022-07-23T15:30:26;11.20;;;6.05;;
71916;SDS011;59793;46.506;6.674;2022-07-23T15:32:52;9.23;;;6.03;;
71916;SDS011;59793;46.506;6.674;2022-07-23T15:35:18;12.20;;;6.05;;
71916;SDS011;59793;46.506;6.674;2022-07-23T15:37:44;6.85;;;5.68;;
71916;SDS011;59793;46.506;6.674;2022-07-23T15:42:35;8.18;;;6.18;;
71916;SDS011;59793;46.506;6.674;2022-07-23T15:47:26;8.52;;;6.97;;
71916;SDS011;59793;46.506;6.674;2022-07-23T15:52:17;9.57;;;5.97;;
71916;SDS011;59793;46.506;6.674;2022-07-23T15:54:42;7.97;;;6.18;;
71916;SDS011;59793;46.506;6.674;2022-07-23T15:57:08;9.57;;;6.45;;
71916;SDS011;59793;46.506;6.674;2022-07-23T15:59:33;12.15;;;6.35;;
71916;SDS011;59793;46.506;6.674;2022-07-23T16:04:24;10.77;;;6.72;;
71916;SDS011;59793;46.506;6.674;2022-07-23T16:06:50;10.77;;;6.65;;
71916;SDS011;59793;46.506;6.674;2022-07-23T16:09:16;9.32;;;6.53;;
71916;SDS011;59793;46.506;6.674;2022-07-23T16:11:41;7.78;;;5.97;;
71916;SDS011;59793;46.506;6.674;2022-07-23T16:14:06;8.20;;;6.63;;
71916;SDS011;59793;46.506;6.674;2022-07-23T16:18:58;11.25;;;6.90;;
71916;SDS011;59793;46.506;6.674;2022-07-23T16:23:49;10.95;;;6.75;;
71916;SDS011;59793;46.506;6.674;2022-07-23T16:28:40;11.05;;;5.85;;
71916;SDS011;59793;46.506;6.674;2022-07-23T16:33:31;9.80;;;6.57;;
71916;SDS011;59793;46.506;6.674;2022-07-23T16:35:57;7.75;;;6.60;;
71916;SDS011;59793;46.506;6.674;2022-07-23T16:43:15;6.93;;;6.13;;
71916;SDS011;59793;46.506;6.674;2022-07-23T16:48:06;9.10;;;6.20;;
71916;SDS011;59793;46.506;6.674;2022-07-23T16:50:31;8.98;;;6.15;;
71916;SDS011;59793;46.506;6.674;2022-07-23T16:55:22;11.75;;;5.90;;
71916;SDS011;59793;46.506;6.674;2022-07-23T17:00:13;9.25;;;5.95;;
71916;SDS011;59793;46.506;6.674;2022-07-23T17:02:39;7.75;;;6.60;;
71916;SDS011;59793;46.506;6.674;2022-07-23T17:07:32;12.90;;;6.35;;
71916;SDS011;59793;46.506;6.674;2022-07-23T17:12:23;7.83;;;5.73;;
71916;SDS011;59793;46.506;6.674;2022-07-23T17:17:15;6.95;;;5.47;;
71916;SDS011;59793;46.506;6.674;2022-07-23T17:22:06;8.97;;;6.70;;
71916;SDS011;59793;46.506;6.674;2022-07-23T17:26:57;11.82;;;5.85;;